Time;durP1;ratioP1;P1;durP2;ratioP2;P2;SDS_P1;SDS_P2;PMS_P1;PMS_P2;Temp;Humidity;BMP_temperature;BMP_pressure;BME280_temperature;BME280_humidity;BME280_pressure;Samples;Min_cycle;Max_cycle;Signal;HPM_P1;HPM_P2
2021/06/08 00:00:23;;;;;;;4.80;3.38;;;;;;;15.54;100.00;95840.00;1008477;29;20528;-81
2021/06/08 00:00:53;;;;;;;5.78;3.65;;;;;;;15.46;100.00;95830.34;1008821;29;20025;-80
2021/06/08 00:01:24;;;;;;;3.75;3.20;;;;;;;15.56;100.00;95846.78;1008558;29;20093;-80
2021/06/08 00:01:55;;;;;;;4.03;3.33;;;;;;;15.53;100.00;95860.59;1012412;29;20025;-80
2021/06/08 00:02:26;;;;;;;4.60;3.42;;;;;;;15.50;100.00;95836.09;1012349;29;20092;-80
2021/06/08 00:02:57;;;;;;;4.35;3.50;;;;;;;15.49;100.00;95837.13;1008595;29;20097;-79
2021/06/08 00:03:27;;;;;;;6.50;3.67;;;;;;;15.23;100.00;95794.16;1008428;29;20070;-80
2021/06/08 00:03:58;;;;;;;4.70;3.45;;;;;;;15.52;100.00;95839.38;1009108;29;20054;-81
2021/06/08 00:04:29;;;;;;;5.32;3.50;;;;;;;15.41;100.00;95814.94;1009681;29;20025;-80
2021/06/08 00:04:59;;;;;;;4.00;3.40;;;;;;;15.57;100.00;95837.72;1009690;29;20013;-82
2021/06/08 00:05:30;;;;;;;3.70;3.22;;;;;;;15.55;100.00;95841.63;1013423;29;20013;-81
2021/06/08 00:06:01;;;;;;;3.58;3.22;;;;;;;15.56;100.00;95844.09;1009621;29;20014;-81
2021/06/08 00:06:31;;;;;;;4.60;3.90;;;;;;;15.52;100.00;95840.22;1005753;29;20029;-81
2021/06/08 00:07:02;;;;;;;3.75;3.13;;;;;;;15.56;100.00;95837.94;1002020;29;20043;-80
2021/06/08 00:07:33;;;;;;;4.75;3.35;;;;;;;15.41;100.00;95841.69;1009542;29;20017;-80
2021/06/08 00:08:04;;;;;;;5.47;3.40;;;;;;;15.20;100.00;95809.81;1008977;29;20054;-80
2021/06/08 00:08:34;;;;;;;5.95;3.17;;;;;;;15.36;100.00;95832.63;1005747;29;20067;-80
2021/06/08 00:09:05;;;;;;;5.45;3.83;;;;;;;15.34;100.00;95827.47;1009238;29;20085;-79
2021/06/08 00:09:36;;;;;;;4.35;3.33;;;;;;;15.24;100.00;95811.88;1009349;29;20025;-81
2021/06/08 00:10:07;;;;;;;5.07;3.30;;;;;;;15.41;100.00;95830.13;1009667;29;20542;-80
2021/06/08 00:10:38;;;;;;;4.60;3.58;;;;;;;15.44;100.00;95833.22;1011106;29;20025;-79
2021/06/08 00:11:08;;;;;;;5.63;3.30;;;;;;;15.43;100.00;95836.09;1002919;29;20026;-80
2021/06/08 00:11:39;;;;;;;4.93;3.08;;;;;;;15.45;100.00;95847.44;1009785;29;20550;-79
2021/06/08 00:12:10;;;;;;;6.28;3.47;;;;;;;15.47;100.00;95848.06;1001308;29;20034;-81
2021/06/08 00:12:41;;;;;;;5.13;3.50;;;;;;;15.49;100.00;95843.31;998158;29;20030;-81
2021/06/08 00:13:11;;;;;;;6.28;3.38;;;;;;;15.27;100.00;95799.91;1006179;29;20025;-82
2021/06/08 00:13:42;;;;;;;6.20;3.20;;;;;;;15.49;100.00;95840.63;1006241;29;20026;-81
2021/06/08 00:14:13;;;;;;;4.72;3.70;;;;;;;15.28;100.00;95828.31;1001643;29;20026;-80
2021/06/08 00:14:43;;;;;;;5.10;3.38;;;;;;;15.20;100.00;95815.97;1001602;29;20018;-81
2021/06/08 00:15:14;;;;;;;4.90;3.58;;;;;;;15.27;100.00;95832.84;1005131;29;20022;-80
2021/06/08 00:15:45;;;;;;;6.15;3.50;;;;;;;15.38;100.00;95855.47;1001331;29;20034;-79
2021/06/08 00:16:16;;;;;;;5.50;3.35;;;;;;;15.30;100.00;95839.63;1003845;29;20396;-80
2021/06/08 00:16:47;;;;;;;6.05;3.88;;;;;;;15.06;100.00;95803.66;1005203;29;20021;-80
2021/06/08 00:17:18;;;;;;;5.45;3.22;;;;;;;15.16;100.00;95830.81;1009140;29;20024;-80
2021/06/08 00:17:48;;;;;;;4.22;3.70;;;;;;;15.16;100.00;95851.38;1001310;29;20036;-80
2021/06/08 00:18:19;;;;;;;6.20;3.35;;;;;;;15.16;100.00;95838.00;1006661;29;20037;-79
2021/06/08 00:18:49;;;;;;;6.82;3.85;;;;;;;15.11;100.00;95835.94;1005055;29;20025;-79
2021/06/08 00:19:20;;;;;;;4.72;3.42;;;;;;;15.00;100.00;95809.84;1009118;29;20025;-80
2021/06/08 00:19:51;;;;;;;6.03;4.00;;;;;;;15.17;100.00;95837.81;1004823;29;20029;-78
2021/06/08 00:20:21;;;;;;;6.00;4.07;;;;;;;15.18;100.00;95849.31;1010849;29;20035;-79
2021/06/08 00:20:52;;;;;;;6.63;3.95;;;;;;;15.16;100.00;95854.88;1001048;29;20033;-79
2021/06/08 00:21:23;;;;;;;6.78;3.90;;;;;;;15.06;100.00;95836.59;1012688;29;20372;-80
2021/06/08 00:21:53;;;;;;;4.93;3.97;;;;;;;15.09;100.00;95841.50;1001389;29;20485;-79
2021/06/08 00:22:24;;;;;;;5.72;4.05;;;;;;;15.06;100.00;95841.09;1002260;29;20030;-79
2021/06/08 00:22:55;;;;;;;4.70;3.75;;;;;;;15.13;100.00;95854.47;1005168;29;20013;-80
2021/06/08 00:23:26;;;;;;;5.00;3.97;;;;;;;14.98;100.00;95827.91;1004987;29;20025;-81
2021/06/08 00:23:57;;;;;;;5.95;3.88;;;;;;;14.92;100.00;95818.06;1001046;29;20049;-80
2021/06/08 00:24:27;;;;;;;5.45;4.07;;;;;;;15.02;100.00;95839.88;1005826;29;20029;-79
2021/06/08 00:24:58;;;;;;;4.63;3.50;;;;;;;15.06;100.00;95836.59;997479;29;20365;-80
2021/06/08 00:25:30;;;;;;;6.18;4.18;;;;;;;15.09;100.00;95835.34;1001065;29;20445;-79
2021/06/08 00:26:00;;;;;;;5.63;3.88;;;;;;;15.07;100.00;95840.06;997442;29;20018;-79
2021/06/08 00:26:33;;;;;;;4.57;3.90;;;;;;;15.06;100.00;95833.06;1004455;29;20013;-79
2021/06/08 00:27:03;;;;;;;5.20;3.78;;;;;;;15.08;100.00;95833.69;1004900;29;20029;-79
2021/06/08 00:27:34;;;;;;;6.20;4.40;;;;;;;15.03;100.00;95828.13;1001135;29;20067;-79
2021/06/08 00:28:07;;;;;;;6.88;3.97;;;;;;;15.20;100.00;95853.41;1000887;29;20032;-79
2021/06/08 00:28:38;;;;;;;4.90;4.15;;;;;;;15.15;100.00;95847.91;1008293;29;20036;-79
2021/06/08 00:29:09;;;;;;;5.28;3.92;;;;;;;15.00;100.00;95834.72;1008252;29;20033;-79
2021/06/08 00:29:39;;;;;;;5.50;4.00;;;;;;;15.04;100.00;95838.63;1012391;29;20034;-79
2021/06/08 00:30:10;;;;;;;4.93;3.97;;;;;;;15.13;100.00;95852.59;1008450;29;20029;-80
2021/06/08 00:30:41;;;;;;;4.63;4.05;;;;;;;15.01;100.00;95828.38;1012316;29;20025;-79
2021/06/08 00:31:11;;;;;;;5.43;4.20;;;;;;;14.87;100.00;95816.84;1012317;29;20084;-79
2021/06/08 00:31:42;;;;;;;6.43;4.40;;;;;;;15.04;100.00;95838.63;1004860;29;20030;-79
2021/06/08 00:32:12;;;;;;;5.50;4.50;;;;;;;14.86;100.00;95809.84;999752;29;20420;-79
2021/06/08 00:32:43;;;;;;;5.35;4.10;;;;;;;15.06;100.00;95841.94;1000910;29;20026;-79
2021/06/08 00:33:14;;;;;;;6.03;4.35;;;;;;;14.94;100.00;95837.41;1001147;29;20410;-79
2021/06/08 00:33:44;;;;;;;5.40;4.30;;;;;;;14.94;100.00;95840.88;1004691;29;20033;-79
2021/06/08 00:34:15;;;;;;;5.53;4.60;;;;;;;14.78;100.00;95819.91;1006086;29;20070;-79
2021/06/08 00:34:45;;;;;;;10.75;5.15;;;;;;;14.97;100.00;95845.00;1012635;29;20028;-79
2021/06/08 00:35:16;;;;;;;6.85;4.60;;;;;;;14.98;100.00;95843.97;1008637;29;20029;-78
2021/06/08 00:35:47;;;;;;;6.30;4.57;;;;;;;14.96;100.00;95846.03;1001228;29;20034;-79
2021/06/08 00:36:17;;;;;;;7.88;4.63;;;;;;;14.80;100.00;95828.56;1006409;29;20025;-79
2021/06/08 00:36:48;;;;;;;5.82;4.53;;;;;;;14.79;100.00;95824.25;1008623;29;20028;-79
2021/06/08 00:37:19;;;;;;;6.60;4.65;;;;;;;14.89;100.00;95846.88;1000812;29;20040;-80
2021/06/08 00:37:49;;;;;;;5.28;4.78;;;;;;;14.86;100.00;95847.28;1001084;29;20085;-79
2021/06/08 00:38:20;;;;;;;5.38;4.43;;;;;;;14.90;100.00;95842.34;1006394;29;20031;-79
2021/06/08 00:38:51;;;;;;;6.82;4.15;;;;;;;14.96;100.00;95849.56;1008573;29;20129;-79
2021/06/08 00:39:22;;;;;;;4.70;4.20;;;;;;;14.98;100.00;95850.16;1004568;29;20524;-79
2021/06/08 00:39:53;;;;;;;6.10;4.28;;;;;;;14.87;100.00;95830.22;1004744;29;20026;-80
2021/06/08 00:40:27;;;;;;;6.03;4.50;;;;;;;14.89;100.00;95829.97;1007240;29;20453;-79
2021/06/08 00:41:00;;;;;;;5.75;4.35;;;;;;;14.90;100.00;95837.81;997229;29;20038;-79
2021/06/08 00:41:38;;;;;;;5.07;4.20;;;;;;;14.88;100.00;95829.16;1008266;29;20033;-79
2021/06/08 00:42:09;;;;;;;7.93;4.25;;;;;;;14.92;100.00;95834.13;1008762;29;20033;-79
2021/06/08 00:42:40;;;;;;;5.65;4.38;;;;;;;14.88;100.00;95823.81;1004638;29;20021;-79
2021/06/08 00:43:11;;;;;;;7.65;4.35;;;;;;;14.98;100.00;95841.28;1000618;29;20400;-79
2021/06/08 00:43:41;;;;;;;6.07;4.90;;;;;;;14.86;100.00;95825.06;1008583;29;20031;-80
2021/06/08 00:44:13;;;;;;;6.65;4.78;;;;;;;14.91;100.00;95844.00;1004528;29;20172;-79
2021/06/08 00:44:44;;;;;;;4.80;4.22;;;;;;;14.94;100.00;95848.09;1000756;29;20017;-79
2021/06/08 00:45:15;;;;;;;6.05;4.75;;;;;;;14.84;100.00;95830.63;1000925;29;20030;-79
2021/06/08 00:45:45;;;;;;;6.07;4.57;;;;;;;14.79;100.00;95834.94;1008666;29;20064;-79
2021/06/08 00:46:16;;;;;;;5.57;4.72;;;;;;;14.87;100.00;95848.09;1002569;29;20469;-80
2021/06/08 00:46:47;;;;;;;5.43;4.60;;;;;;;14.94;100.00;95846.22;1008567;29;20064;-80
2021/06/08 00:47:17;;;;;;;6.20;4.38;;;;;;;14.98;100.00;95839.47;1008361;29;20021;-79
2021/06/08 00:47:49;;;;;;;7.47;4.68;;;;;;;14.98;100.00;95839.47;1000845;29;20021;-79
2021/06/08 00:48:20;;;;;;;5.47;4.40;;;;;;;14.78;100.00;95810.03;1008285;29;20112;-78
2021/06/08 00:48:54;;;;;;;6.30;5.00;;;;;;;15.01;100.00;95844.41;1004671;29;20017;-79
2021/06/08 00:49:24;;;;;;;6.22;4.50;;;;;;;14.89;100.00;95833.50;997032;29;20109;-79
2021/06/08 00:49:55;;;;;;;7.38;4.68;;;;;;;14.86;100.00;95819.72;1008451;29;20013;-79
2021/06/08 00:50:26;;;;;;;6.03;4.88;;;;;;;14.96;100.00;95835.34;1005903;29;20120;-79
2021/06/08 00:50:56;;;;;;;5.88;4.80;;;;;;;15.04;100.00;95845.84;1001551;29;20022;-80
2021/06/08 00:51:27;;;;;;;5.47;4.78;;;;;;;15.03;100.00;95839.66;1005405;29;20029;-81
2021/06/08 00:51:58;;;;;;;5.43;4.57;;;;;;;14.99;100.00;95837.59;1004969;29;20026;-80
2021/06/08 00:52:29;;;;;;;5.45;4.72;;;;;;;15.04;100.00;95838.63;1007929;29;20013;-81
2021/06/08 00:52:59;;;;;;;7.20;4.60;;;;;;;15.10;100.00;95853.03;1005273;29;20496;-80
2021/06/08 00:53:30;;;;;;;6.15;4.47;;;;;;;14.98;100.00;95823.41;1008926;29;20028;-82
2021/06/08 00:54:07;;;;;;;6.22;4.32;;;;;;;15.07;100.00;95840.06;1009059;29;20025;-80
2021/06/08 00:54:38;;;;;;;5.82;4.72;;;;;;;14.90;100.00;95813.72;1005237;29;20054;-80
2021/06/08 00:55:11;;;;;;;7.15;4.70;;;;;;;15.08;100.00;95845.22;1005064;29;20030;-79
2021/06/08 00:55:41;;;;;;;5.97;4.30;;;;;;;14.92;100.00;95818.06;1004619;29;20483;-79
2021/06/08 00:56:12;;;;;;;7.25;4.60;;;;;;;15.04;100.00;95843.16;1008937;29;20024;-80
2021/06/08 00:56:43;;;;;;;8.02;4.43;;;;;;;15.01;100.00;95843.56;1008552;29;20028;-79
2021/06/08 00:57:14;;;;;;;6.35;4.50;;;;;;;14.98;100.00;95838.63;1011764;29;20101;-80
2021/06/08 00:57:45;;;;;;;6.43;4.55;;;;;;;15.03;100.00;95844.19;1004342;29;20058;-79
2021/06/08 00:58:16;;;;;;;6.30;4.25;;;;;;;14.96;100.00;95835.34;1008432;29;20025;-80
2021/06/08 00:58:46;;;;;;;6.75;4.55;;;;;;;15.05;100.00;95840.28;1007959;29;20364;-79
2021/06/08 00:59:17;;;;;;;7.63;4.43;;;;;;;15.01;100.00;95838.22;1004185;29;20025;-80
2021/06/08 00:59:48;;;;;;;6.18;4.18;;;;;;;14.97;100.00;95839.66;1008244;29;20018;-79
2021/06/08 01:00:19;;;;;;;4.88;4.10;;;;;;;14.89;100.00;95840.69;1008288;29;20017;-79
2021/06/08 01:00:50;;;;;;;5.00;4.50;;;;;;;14.80;100.00;95818.66;1004781;29;20403;-79
2021/06/08 01:01:20;;;;;;;7.30;4.03;;;;;;;14.88;100.00;95828.34;1012393;29;20017;-80
2021/06/08 01:01:51;;;;;;;4.60;3.97;;;;;;;14.87;100.00;95819.53;1004655;29;20021;-80
2021/06/08 01:02:22;;;;;;;6.32;4.20;;;;;;;14.96;100.00;95836.19;1004561;29;20044;-80
2021/06/08 01:02:52;;;;;;;7.13;4.20;;;;;;;14.98;100.00;95842.13;1008933;29;20021;-79
2021/06/08 01:03:23;;;;;;;7.15;4.70;;;;;;;14.82;100.00;95813.13;1012698;29;20130;-79
2021/06/08 01:03:54;;;;;;;6.57;4.60;;;;;;;14.96;100.00;95838.00;1008665;29;20057;-79
2021/06/08 01:04:25;;;;;;;4.82;4.32;;;;;;;14.95;100.00;95837.19;1001250;29;20053;-80
2021/06/08 01:04:55;;;;;;;4.82;4.22;;;;;;;14.94;100.00;95837.41;1009076;29;20021;-81
2021/06/08 01:05:26;;;;;;;5.00;3.80;;;;;;;14.92;100.00;95839.47;1005262;29;20026;-81
2021/06/08 01:05:56;;;;;;;5.20;4.20;;;;;;;14.95;100.00;95833.72;1009215;29;20383;-80
2021/06/08 01:06:27;;;;;;;7.20;4.60;;;;;;;14.83;100.00;95823.63;1009041;29;20064;-80
2021/06/08 01:06:58;;;;;;;4.68;3.88;;;;;;;14.92;100.00;95828.75;1009048;29;20029;-80
2021/06/08 01:07:29;;;;;;;8.18;4.60;;;;;;;14.87;100.00;95832.88;1005635;29;20037;-79
2021/06/08 01:07:59;;;;;;;6.00;4.38;;;;;;;14.88;100.00;95825.69;1009118;29;20124;-80
2021/06/08 01:08:30;;;;;;;6.45;4.40;;;;;;;14.81;100.00;95817.66;1005052;29;20029;-81
2021/06/08 01:09:01;;;;;;;5.30;4.20;;;;;;;14.87;100.00;95829.38;1001239;29;20034;-79
2021/06/08 01:09:32;;;;;;;5.32;4.30;;;;;;;14.86;100.00;95825.06;1005235;29;20030;-81
2021/06/08 01:10:04;;;;;;;4.38;3.95;;;;;;;14.93;100.00;95833.91;1001036;29;20026;-79
2021/06/08 01:10:34;;;;;;;6.03;4.15;;;;;;;14.93;100.00;95833.09;1001100;29;20082;-79
2021/06/08 01:11:05;;;;;;;5.85;4.22;;;;;;;14.78;100.00;95812.72;1004990;29;20517;-78
2021/06/08 01:11:36;;;;;;;5.82;4.40;;;;;;;14.87;100.00;95824.03;1001366;29;20403;-80
2021/06/08 01:12:07;;;;;;;6.43;4.10;;;;;;;14.83;100.00;95823.63;1005845;29;20018;-80
2021/06/08 01:12:38;;;;;;;4.95;4.05;;;;;;;14.87;100.00;95830.22;1001181;29;20073;-80
2021/06/08 01:13:08;;;;;;;5.85;4.25;;;;;;;14.81;100.00;95822.19;1008659;29;20464;-79
2021/06/08 01:13:41;;;;;;;8.68;4.00;;;;;;;14.85;100.00;95828.75;1004114;29;20030;-80
2021/06/08 01:14:12;;;;;;;5.65;4.38;;;;;;;14.78;100.00;95819.91;1007654;29;20029;-81
2021/06/08 01:14:42;;;;;;;7.22;4.78;;;;;;;14.86;100.00;95831.22;1005120;29;20022;-80
2021/06/08 01:15:13;;;;;;;6.72;4.30;;;;;;;14.84;100.00;95824.47;1005489;29;20033;-80
2021/06/08 01:15:44;;;;;;;5.90;3.92;;;;;;;14.84;100.00;95817.25;1005531;29;20022;-81
2021/06/08 01:16:14;;;;;;;8.18;4.70;;;;;;;14.88;100.00;95829.16;1006391;29;20023;-80
2021/06/08 01:16:45;;;;;;;6.13;4.20;;;;;;;14.83;100.00;95815.59;1009124;29;20530;-81
2021/06/08 01:17:16;;;;;;;5.93;4.35;;;;;;;14.86;100.00;95828.56;1009040;29;20460;-81
2021/06/08 01:17:46;;;;;;;6.38;3.95;;;;;;;14.82;100.00;95824.66;1008649;29;20040;-80
2021/06/08 01:18:17;;;;;;;5.13;3.97;;;;;;;14.77;100.00;95808.41;1004738;29;20033;-79
2021/06/08 01:18:48;;;;;;;6.95;4.40;;;;;;;14.84;100.00;95819.91;1004812;29;20043;-79
2021/06/08 01:19:19;;;;;;;5.03;3.92;;;;;;;14.80;100.00;95813.31;1004602;29;20054;-80
2021/06/08 01:19:49;;;;;;;5.75;4.28;;;;;;;14.83;100.00;95818.25;1004637;29;20034;-78
2021/06/08 01:20:20;;;;;;;4.60;4.00;;;;;;;14.83;100.00;95815.59;1004594;29;20025;-80
2021/06/08 01:21:02;;;;;;;9.13;3.92;;;;;;;14.88;100.00;95817.66;1008299;29;20025;-80
2021/06/08 01:21:33;;;;;;;4.90;4.15;;;;;;;14.78;100.00;95803.88;1008661;29;20017;-79
2021/06/08 01:22:04;;;;;;;6.20;4.88;;;;;;;14.70;100.00;95815.63;1012920;29;20116;-80
2021/06/08 01:22:35;;;;;;;6.55;5.00;;;;;;;14.73;100.00;95820.53;1005038;29;20022;-80
2021/06/08 01:23:07;;;;;;;6.72;4.40;;;;;;;14.75;100.00;95823.00;1008788;29;20017;-79
2021/06/08 01:23:38;;;;;;;5.50;4.20;;;;;;;14.73;100.00;95819.72;1009641;29;20045;-80
2021/06/08 01:24:09;;;;;;;6.90;4.57;;;;;;;14.74;100.00;95824.84;1010180;29;20173;-79
2021/06/08 01:24:40;;;;;;;7.32;4.93;;;;;;;14.57;100.00;95788.84;1005166;29;20484;-79
2021/06/08 01:25:11;;;;;;;6.90;4.57;;;;;;;14.64;100.00;95803.88;1008061;29;20018;-80
2021/06/08 01:25:42;;;;;;;5.75;4.43;;;;;;;14.67;100.00;95810.66;1004268;29;20029;-79
2021/06/08 01:26:12;;;;;;;5.57;4.40;;;;;;;14.72;100.00;95818.91;1009360;29;20037;-79
2021/06/08 01:26:43;;;;;;;7.18;4.55;;;;;;;14.60;100.00;95809.84;1016635;29;20431;-79
2021/06/08 01:27:14;;;;;;;5.00;4.45;;;;;;;14.63;100.00;95812.94;1004488;29;20040;-79
2021/06/08 01:27:44;;;;;;;5.35;4.47;;;;;;;14.55;100.00;95798.91;1004645;29;20102;-79
2021/06/08 01:28:15;;;;;;;7.30;4.70;;;;;;;14.66;100.00;95823.22;1007994;29;20088;-78
2021/06/08 01:28:46;;;;;;;6.35;4.60;;;;;;;14.67;100.00;95818.69;1011877;29;20021;-79
2021/06/08 01:29:16;;;;;;;8.70;5.45;;;;;;;14.63;100.00;95817.44;1004475;29;20033;-78
2021/06/08 01:29:51;;;;;;;5.18;4.13;;;;;;;14.66;100.00;95814.34;1012175;29;20578;-79
2021/06/08 01:30:23;;;;;;;7.57;4.88;;;;;;;14.56;100.00;95803.22;1015984;29;20386;-79
2021/06/08 01:30:54;;;;;;;6.40;4.68;;;;;;;14.57;100.00;95808.34;1004460;29;20053;-79
2021/06/08 01:31:26;;;;;;;6.05;4.80;;;;;;;14.58;100.00;95811.84;1004313;29;20033;-79
2021/06/08 01:31:58;;;;;;;6.63;4.65;;;;;;;14.44;100.00;95800.34;1008388;29;20415;-78
2021/06/08 01:32:29;;;;;;;5.05;4.55;;;;;;;14.53;100.00;95817.81;1008955;29;20100;-79
2021/06/08 01:32:59;;;;;;;5.90;4.60;;;;;;;14.53;100.00;95815.16;1008229;29;20029;-79
2021/06/08 01:33:30;;;;;;;6.38;5.00;;;;;;;14.44;100.00;95814.53;1004383;29;20434;-79
2021/06/08 01:34:01;;;;;;;6.47;5.00;;;;;;;14.18;100.00;95774.38;1004657;29;20491;-78
2021/06/08 01:34:32;;;;;;;7.10;5.10;;;;;;;14.41;100.00;95814.09;1004242;29;20072;-79
2021/06/08 01:35:02;;;;;;;7.18;5.18;;;;;;;14.41;100.00;95806.91;1008362;29;20029;-78
2021/06/08 01:35:33;;;;;;;5.43;4.90;;;;;;;14.32;100.00;95792.09;1008247;29;20028;-78
2021/06/08 01:36:04;;;;;;;6.80;4.88;;;;;;;14.23;100.00;95787.97;1004573;29;20037;-78
2021/06/08 01:36:37;;;;;;;7.32;4.70;;;;;;;14.47;100.00;95815.94;1001017;29;20481;-78
2021/06/08 01:37:08;;;;;;;5.25;4.63;;;;;;;14.38;100.00;95801.97;1000791;29;20473;-78
2021/06/08 01:37:39;;;;;;;7.00;5.03;;;;;;;14.38;100.00;95807.31;1004531;29;20025;-78
2021/06/08 01:38:10;;;;;;;6.57;4.85;;;;;;;14.41;100.00;95811.44;1004595;29;20547;-78
2021/06/08 01:38:41;;;;;;;6.20;4.95;;;;;;;14.26;100.00;95799.06;1000622;29;20082;-78
2021/06/08 01:39:12;;;;;;;6.63;5.13;;;;;;;14.28;100.00;95804.19;1004627;29;20090;-79
2021/06/08 01:39:46;;;;;;;6.85;5.00;;;;;;;14.29;100.00;95813.88;1000599;29;20095;-79
2021/06/08 01:40:17;;;;;;;6.75;5.53;;;;;;;14.26;100.00;95807.06;1002889;29;20416;-78
2021/06/08 01:40:49;;;;;;;7.25;4.88;;;;;;;14.35;100.00;95815.75;1009140;29;20025;-77
2021/06/08 01:41:21;;;;;;;6.68;4.97;;;;;;;14.27;100.00;95805.25;1004641;29;20495;-79
2021/06/08 01:41:52;;;;;;;6.72;4.70;;;;;;;14.37;100.00;95816.38;1001356;29;20038;-79
2021/06/08 01:42:23;;;;;;;5.45;4.95;;;;;;;14.29;100.00;95804.00;1005352;29;20026;-79
2021/06/08 01:42:53;;;;;;;8.13;5.00;;;;;;;14.37;100.00;95816.38;1001115;29;20030;-80
2021/06/08 01:43:24;;;;;;;8.05;5.32;;;;;;;14.29;100.00;95798.66;1005351;29;20025;-79
2021/06/08 01:43:55;;;;;;;8.35;4.88;;;;;;;14.40;100.00;95813.25;1009280;29;20019;-79
2021/06/08 01:44:25;;;;;;;6.40;4.45;;;;;;;14.42;100.00;95808.56;1009082;29;20029;-80
2021/06/08 01:44:56;;;;;;;6.07;4.75;;;;;;;14.45;100.00;95810.00;1008474;29;20499;-80
2021/06/08 01:45:27;;;;;;;5.22;4.60;;;;;;;14.28;100.00;95778.34;1008167;29;20037;-80
2021/06/08 01:45:58;;;;;;;6.40;5.15;;;;;;;14.53;100.00;95821.31;1006123;29;20037;-81
2021/06/08 01:46:28;;;;;;;6.40;4.97;;;;;;;14.45;100.00;95797.44;1002326;29;20518;-79
2021/06/08 01:46:59;;;;;;;6.32;5.45;;;;;;;14.51;100.00;95814.53;1001951;29;20456;-79
2021/06/08 01:47:29;;;;;;;5.35;4.85;;;;;;;14.51;100.00;95815.34;997876;29;20424;-79
2021/06/08 01:48:01;;;;;;;7.40;4.95;;;;;;;14.52;100.00;95818.84;1005314;29;20025;-79
2021/06/08 01:48:31;;;;;;;7.88;5.30;;;;;;;14.30;100.00;95788.81;1008632;29;20148;-79
2021/06/08 01:49:02;;;;;;;8.85;5.13;;;;;;;14.45;100.00;95802.78;1005247;29;20037;-79
2021/06/08 01:49:33;;;;;;;5.30;4.75;;;;;;;14.53;100.00;95820.50;1001393;29;20018;-79
2021/06/08 01:50:04;;;;;;;6.35;4.60;;;;;;;14.45;100.00;95818.00;1001280;29;20100;-79
2021/06/08 01:50:35;;;;;;;11.18;5.45;;;;;;;14.52;100.00;95824.19;1009237;29;20040;-79
2021/06/08 01:51:13;;;;;;;5.53;4.53;;;;;;;14.47;100.00;95826.63;1009061;29;20029;-79
2021/06/08 01:52:05;;;;;;;5.53;4.93;;;;;;;14.30;100.00;95804.84;1005310;29;20508;-79
2021/06/08 01:52:59;;;;;;;5.65;4.80;;;;;;;14.38;100.00;95818.00;1009111;29;20076;-79
2021/06/08 01:53:33;;;;;;;6.80;4.72;;;;;;;14.47;100.00;95824.81;1009108;29;20538;-78
2021/06/08 01:54:25;;;;;;;7.40;5.10;;;;;;;14.44;100.00;95830.56;1005263;29;20029;-79
2021/06/08 01:55:08;;;;;;;5.53;4.60;;;;;;;14.45;100.00;95826.84;1012976;29;20029;-79
2021/06/08 01:55:43;;;;;;;7.97;5.25;;;;;;;14.37;100.00;95824.38;1005687;29;20029;-78
2021/06/08 01:56:14;;;;;;;5.75;4.88;;;;;;;14.33;100.00;95823.97;999949;29;20177;-79
2021/06/08 01:56:47;;;;;;;11.40;5.35;;;;;;;14.32;100.00;95827.66;1005229;29;20029;-79
2021/06/08 01:57:27;;;;;;;7.00;5.15;;;;;;;14.26;100.00;95824.94;1001557;29;20037;-79
2021/06/08 01:58:32;;;;;;;5.20;4.70;;;;;;;14.36;100.00;95830.75;1001481;29;20419;-80
2021/06/08 01:59:29;;;;;;;11.40;5.38;;;;;;;14.29;100.00;95816.53;1007265;29;20037;-79
2021/06/08 02:00:12;;;;;;;6.57;5.18;;;;;;;14.24;100.00;95822.47;1005153;29;20040;-79
2021/06/08 02:01:04;;;;;;;6.22;5.18;;;;;;;14.26;100.00;95819.63;1005051;29;20120;-79
2021/06/08 02:01:56;;;;;;;6.80;5.03;;;;;;;14.37;100.00;95831.56;1005228;29;20058;-79
2021/06/08 02:02:52;;;;;;;6.10;5.20;;;;;;;14.35;100.00;95823.75;1005087;29;20113;-79
2021/06/08 02:03:48;;;;;;;6.15;4.78;;;;;;;14.40;100.00;95829.28;1007572;29;20518;-79
2021/06/08 02:04:23;;;;;;;6.63;4.75;;;;;;;14.35;100.00;95821.09;1000973;29;20048;-80
2021/06/08 02:05:08;;;;;;;6.25;5.55;;;;;;;14.27;100.00;95806.06;1005116;29;20508;-79
2021/06/08 02:05:50;;;;;;;7.68;5.53;;;;;;;14.33;100.00;95815.09;1005415;29;20074;-79
2021/06/08 02:06:38;;;;;;;7.70;4.72;;;;;;;14.36;100.00;95819.22;1005226;29;20302;-79
2021/06/08 02:07:30;;;;;;;7.53;5.00;;;;;;;14.34;100.00;95825.59;1005853;29;20033;-79
2021/06/08 02:08:19;;;;;;;8.90;5.43;;;;;;;14.41;100.00;95833.63;1008954;29;20120;-79
2021/06/08 02:09:05;;;;;;;7.22;5.00;;;;;;;14.43;100.00;95825.41;1007808;29;20093;-81
2021/06/08 02:09:51;;;;;;;7.15;5.47;;;;;;;14.40;100.00;95831.97;1009681;29;20514;-79
2021/06/08 02:10:47;;;;;;;5.60;5.00;;;;;;;14.39;100.00;95832.19;1012684;29;20483;-79
2021/06/08 02:11:49;;;;;;;5.93;4.93;;;;;;;14.12;100.00;95798.25;1013023;29;20494;-79
2021/06/08 02:12:20;;;;;;;8.32;5.47;;;;;;;14.19;100.00;95830.28;1001911;29;20038;-79
2021/06/08 02:12:59;;;;;;;8.23;4.95;;;;;;;14.22;100.00;95823.72;1001337;29;20105;-79
2021/06/08 02:13:51;;;;;;;9.48;5.13;;;;;;;14.19;100.00;95826.78;1009207;29;20057;-79
2021/06/08 02:14:25;;;;;;;11.52;5.32;;;;;;;14.23;100.00;95834.22;1008868;29;20033;-79
2021/06/08 02:15:07;;;;;;;6.75;5.10;;;;;;;14.23;100.00;95828.88;1005038;29;20028;-78
2021/06/08 02:15:47;;;;;;;6.47;4.93;;;;;;;14.21;100.00;95832.75;1009089;29;20021;-79
2021/06/08 02:16:22;;;;;;;5.80;4.47;;;;;;;14.09;100.00;95817.31;1001346;29;20401;-79
2021/06/08 02:16:55;;;;;;;6.68;5.07;;;;;;;14.20;100.00;95831.94;1001410;29;20025;-79
2021/06/08 02:17:32;;;;;;;7.03;5.38;;;;;;;14.09;100.00;95811.97;1008975;29;20478;-79
2021/06/08 02:18:03;;;;;;;5.78;5.18;;;;;;;14.18;100.00;95825.97;1009094;29;20024;-79
2021/06/08 02:18:34;;;;;;;7.47;4.88;;;;;;;14.06;100.00;95812.38;997516;29;20461;-80
2021/06/08 02:19:05;;;;;;;5.63;5.03;;;;;;;14.09;100.00;95822.66;1001449;29;20100;-79
2021/06/08 02:19:36;;;;;;;7.88;5.38;;;;;;;14.00;100.00;95818.50;997755;29;20022;-79
2021/06/08 02:20:20;;;;;;;6.43;5.13;;;;;;;14.11;100.00;95833.97;1001698;29;20022;-78
2021/06/08 02:20:51;;;;;;;6.03;4.68;;;;;;;14.03;100.00;95818.13;1012857;29;20028;-78
2021/06/08 02:21:28;;;;;;;5.63;5.00;;;;;;;14.04;100.00;95825.13;1009026;29;20029;-79
2021/06/08 02:22:02;;;;;;;5.43;4.70;;;;;;;14.04;100.00;95822.44;1001425;29;20025;-79
2021/06/08 02:22:33;;;;;;;6.72;5.00;;;;;;;14.08;100.00;95834.34;993917;29;20031;-79
2021/06/08 02:23:06;;;;;;;6.03;5.25;;;;;;;14.04;100.00;95822.44;1004668;29;20025;-80
2021/06/08 02:23:37;;;;;;;8.15;5.53;;;;;;;14.02;100.00;95829.84;1001316;29;20488;-79
2021/06/08 02:24:08;;;;;;;7.57;5.40;;;;;;;13.89;100.00;95811.09;1001872;29;20026;-79
2021/06/08 02:24:38;;;;;;;8.93;5.25;;;;;;;13.85;100.00;95809.84;997479;29;20032;-79
2021/06/08 02:25:10;;;;;;;7.90;4.97;;;;;;;13.95;100.00;95829.00;1001216;29;20037;-79
2021/06/08 02:25:40;;;;;;;8.43;5.63;;;;;;;13.96;100.00;95830.63;1001229;29;20053;-79
2021/06/08 02:26:11;;;;;;;7.93;4.97;;;;;;;14.01;100.00;95825.50;1009631;29;20021;-79
2021/06/08 02:26:42;;;;;;;7.43;5.22;;;;;;;14.04;100.00;95833.13;1004982;29;20025;-78
2021/06/08 02:27:13;;;;;;;7.82;5.38;;;;;;;13.99;100.00;95818.75;1005112;29;20025;-79
2021/06/08 02:27:43;;;;;;;6.32;5.30;;;;;;;13.93;100.00;95818.50;1008847;29;20035;-78
2021/06/08 02:28:14;;;;;;;7.60;5.10;;;;;;;13.94;100.00;95822.00;1004943;29;20040;-80
2021/06/08 02:28:45;;;;;;;6.18;5.28;;;;;;;13.92;100.00;95813.38;1001331;29;20030;-79
2021/06/08 02:29:15;;;;;;;7.32;5.10;;;;;;;13.90;100.00;95820.75;1001511;29;20022;-80
2021/06/08 02:29:46;;;;;;;8.90;5.63;;;;;;;13.83;100.00;95812.72;1005044;29;20512;-79
2021/06/08 02:30:18;;;;;;;6.93;5.68;;;;;;;13.94;100.00;95830.81;1005179;29;20057;-79
2021/06/08 02:30:49;;;;;;;7.82;5.10;;;;;;;13.91;100.00;95817.06;1005002;29;20025;-79
2021/06/08 02:31:20;;;;;;;5.70;4.85;;;;;;;13.93;100.00;95820.34;1009153;29;20025;-79
2021/06/08 02:31:50;;;;;;;8.15;5.40;;;;;;;13.93;100.00;95826.53;1005189;29;20523;-79
2021/06/08 02:32:21;;;;;;;6.03;5.40;;;;;;;13.86;100.00;95832.84;1014447;29;20060;-79
2021/06/08 02:32:52;;;;;;;6.88;5.47;;;;;;;13.86;100.00;95849.66;1008987;29;20142;-79